.
WxDataArchive / Data Records for 2012-03-24
2012-03-23 March 2012 2012-03-25

Data Records for Saturday, 24 March 2012

Time	Temp	Chill	HIndex	Humid	Dewpt	 Wind 	HiWind	WindDir	Rain 	Barom 
-----	----	-----	------	-----	-----	------	------	-------	-----	----- 
00:00	58.6	58.6	58.6	95	57.2	0	1	135	0.00	29.818 
00:05	58.7	58.7	58.7	95	57.3	0	1	135	0.00	29.818 
00:10	58.7	58.7	58.7	95	57.3	0	0	---	0.00	29.818 
00:15	58.7	58.7	58.7	95	57.3	0	1	135	0.00	29.799 
00:20	58.7	58.7	58.7	95	57.3	0	0	---	0.00	29.799 
00:25	58.7	58.7	58.7	95	57.3	0	0	---	0.00	29.799 
00:30	58.7	58.7	58.7	95	57.3	0	0	---	0.00	29.796 
00:35	58.7	58.7	58.7	95	57.3	0	0	---	0.00	29.796 
00:40	58.7	58.7	58.7	95	57.3	0	0	---	0.00	29.796 
00:45	58.7	58.7	58.7	95	57.3	0	0	---	0.00	29.802 
00:50	58.7	58.7	58.7	95	57.3	0	0	---	0.00	29.802 
00:55	58.9	58.9	58.9	96	57.8	0	0	---	0.00	29.802 
01:00	58.9	58.9	58.9	96	57.8	0	0	---	0.00	29.800 
01:05	58.9	58.9	58.9	96	57.8	0	0	---	0.00	29.800 
01:10	58.9	58.9	58.9	96	57.8	0	0	---	0.00	29.800 
01:15	58.9	58.9	58.9	96	57.8	0	0	---	0.00	29.794 
01:20	58.9	58.9	58.9	96	57.8	0	1	135	0.00	29.794 
01:25	58.9	58.9	58.9	96	57.8	0	1	22	0.00	29.794 
01:30	58.9	58.9	58.9	96	57.8	0	2	22	0.00	29.796 
01:35	58.7	58.7	58.7	96	57.6	0	1	22	0.01	29.796 
01:40	58.6	58.6	58.6	96	57.5	0	1	22	0.01	29.796 
01:45	58.4	58.4	58.4	95	57.0	0	1	22	0.01	29.794 
01:50	58.4	58.4	58.4	96	57.3	0	1	22	0.01	29.794 
01:55	58.3	58.3	58.3	96	57.2	0	1	22	0.01	29.794 
02:00	58.3	58.3	58.3	96	57.2	0	0	---	0.02	29.806 
02:05	58.3	58.3	58.3	96	57.2	0	1	22	0.01	29.806 
02:10	58.3	58.3	58.3	96	57.2	0	0	---	0.02	29.806 
02:15	58.4	58.4	58.4	96	57.3	0	1	22	0.09	29.822 
02:20	58.4	58.4	58.4	96	57.3	0	1	22	0.17	29.822 
02:25	58.1	58.1	58.1	96	57.0	0	0	---	0.08	29.822 
02:30	58.0	58.0	58.0	96	56.9	0	2	22	0.03	29.798 
02:35	57.6	57.6	57.6	96	56.5	1	3	22	0.02	29.798 
02:40	57.8	57.8	57.8	96	56.7	0	3	22	0.01	29.798 
02:45	58.0	58.0	58.0	96	56.9	1	3	292	0.00	29.782 
02:50	58.0	58.0	58.0	96	56.9	0	1	292	0.00	29.782 
02:55	58.0	58.0	58.0	96	56.9	0	2	292	0.00	29.782 
03:00	57.8	57.8	57.8	96	56.7	0	1	292	0.00	29.768 
03:05	57.8	57.8	57.8	96	56.7	0	2	0	0.00	29.768 
03:10	57.8	57.8	57.8	96	56.7	0	1	0	0.00	29.768 
03:15	57.8	57.8	57.8	96	56.7	0	1	0	0.00	29.764 
03:20	57.6	57.6	57.6	96	56.5	0	0	---	0.00	29.764 
03:25	57.6	57.6	57.6	96	56.5	0	0	---	0.00	29.764 
03:30	57.6	57.6	57.6	96	56.5	0	0	---	0.00	29.766 
03:35	57.5	57.5	57.5	96	56.4	0	0	---	0.00	29.766 
03:40	57.5	57.5	57.5	96	56.4	0	0	---	0.00	29.766 
03:45	57.5	57.5	57.5	96	56.4	0	0	---	0.00	29.760 
03:50	57.6	57.6	57.6	96	56.5	0	0	---	0.00	29.760 
03:55	57.5	57.5	57.5	96	56.4	0	0	---	0.00	29.760 
04:00	57.5	57.5	57.5	96	56.4	0	0	---	0.00	29.751 
04:05	57.5	57.5	57.5	96	56.4	0	0	---	0.00	29.751 
04:10	57.3	57.3	57.3	96	56.2	0	0	---	0.00	29.751 
04:15	57.3	57.3	57.3	96	56.2	0	0	---	0.00	29.757 
04:20	57.3	57.3	57.3	96	56.2	0	0	---	0.00	29.757 
04:25	57.3	57.3	57.3	96	56.2	0	0	---	0.00	29.757 
04:30	57.5	57.5	57.5	96	56.4	0	1	0	0.00	29.749 
04:35	57.5	57.5	57.5	96	56.4	0	1	0	0.00	29.749 
04:40	57.3	57.3	57.3	96	56.2	0	1	0	0.00	29.749 
04:45	57.3	57.3	57.3	96	56.2	0	1	0	0.00	29.751 
04:50	57.2	57.2	57.2	96	56.1	0	0	---	0.00	29.751 
04:55	57.0	57.0	57.0	96	55.9	0	0	---	0.00	29.751 
05:00	57.0	57.0	57.0	96	55.9	0	0	---	0.00	29.750 
05:05	57.0	57.0	57.0	96	55.9	0	0	---	0.00	29.750 
05:10	57.2	57.2	57.2	96	56.1	0	1	0	0.00	29.750 
05:15	57.2	57.2	57.2	96	56.1	0	0	---	0.00	29.748 
05:20	57.3	57.3	57.3	96	56.2	0	1	0	0.00	29.748 
05:25	57.3	57.3	57.3	96	56.2	0	1	0	0.00	29.748 
05:30	57.3	57.3	57.3	96	56.2	0	0	---	0.00	29.749 
05:35	57.2	57.2	57.2	96	56.1	1	4	0	0.00	29.749 
05:40	57.0	57.0	57.0	96	55.9	1	2	112	0.00	29.749 
05:45	56.9	56.9	56.9	96	55.8	1	4	112	0.00	29.738 
05:50	56.9	56.9	56.9	96	55.8	1	4	112	0.00	29.738 
05:55	56.7	56.7	56.7	96	55.6	1	3	112	0.00	29.738 
06:00	56.7	56.7	56.7	96	55.6	1	4	112	0.00	29.736 
06:05	56.6	56.6	56.6	96	55.5	1	3	112	0.00	29.736 
06:10	56.6	56.6	56.6	96	55.5	0	2	112	0.00	29.736 
06:15	56.6	56.6	56.6	96	55.5	0	2	112	0.00	29.748 
06:20	56.6	56.6	56.6	96	55.5	1	2	112	0.00	29.748 
06:25	56.6	56.6	56.6	96	55.5	1	3	112	0.00	29.748 
06:30	56.6	56.6	56.6	96	55.5	1	3	112	0.00	29.742 
06:35	56.6	56.6	56.6	96	55.5	0	2	112	0.00	29.742 
06:40	56.6	56.6	56.6	96	55.5	1	2	112	0.00	29.742 
06:45	56.6	56.6	56.6	96	55.5	0	3	112	0.00	29.752 
06:50	56.6	56.6	56.6	96	55.5	0	2	112	0.00	29.752 
06:55	56.5	56.5	56.5	96	55.4	0	2	112	0.00	29.752 
07:00	56.5	56.5	56.5	96	55.4	1	3	112	0.00	29.757 
07:05	56.3	56.3	56.3	96	55.2	0	2	112	0.00	29.757 
07:10	56.3	56.3	56.3	96	55.2	0	1	112	0.00	29.757 
07:15	56.2	56.2	56.2	96	55.1	0	1	112	0.00	29.764 
07:20	56.2	56.2	56.2	96	55.1	0	1	112	0.00	29.764 
07:25	56.2	56.2	56.2	96	55.1	0	0	---	0.00	29.764 
07:30	56.0	56.0	56.0	96	54.9	0	0	---	0.00	29.769 
07:35	56.0	56.0	56.0	96	54.9	0	0	---	0.00	29.769 
07:40	56.0	56.0	56.0	96	54.9	0	0	---	0.00	29.769 
07:45	56.0	56.0	56.0	96	54.9	0	0	---	0.00	29.772 
07:50	56.0	56.0	56.0	96	54.9	0	0	---	0.00	29.772 
07:55	56.0	56.0	56.0	96	54.9	0	0	---	0.00	29.772 
08:00	56.0	56.0	56.0	96	54.9	0	0	---	0.00	29.776 
08:05	56.2	56.2	56.2	96	55.1	0	0	---	0.00	29.776 
08:10	56.2	56.2	56.2	96	55.1	0	0	---	0.00	29.776 
08:15	56.2	56.2	56.2	96	55.1	0	0	---	0.00	29.784 
08:20	56.2	56.2	56.2	96	55.1	0	0	---	0.00	29.784 
08:25	56.2	56.2	56.2	96	55.1	0	0	---	0.00	29.784 
08:30	56.3	56.3	56.3	96	55.2	0	0	---	0.00	29.786 
08:35	56.3	56.3	56.3	96	55.2	0	0	---	0.00	29.786 
08:40	56.3	56.3	56.3	96	55.2	0	0	---	0.00	29.786 
08:45	56.3	56.3	56.3	96	55.2	0	0	---	0.00	29.789 
08:50	56.3	56.3	56.3	96	55.2	0	0	---	0.00	29.789 
08:55	56.3	56.3	56.3	96	55.2	0	0	---	0.00	29.789 
09:00	56.3	56.3	56.3	96	55.2	0	1	112	0.00	29.789 
09:05	56.2	56.2	56.2	96	55.1	0	0	---	0.00	29.789 
09:10	56.2	56.2	56.2	96	55.1	0	0	---	0.00	29.789 
09:15	56.3	56.3	56.3	96	55.2	0	0	---	0.00	29.795 
09:20	56.3	56.3	56.3	96	55.2	0	0	---	0.01	29.795 
09:25	56.3	56.3	56.3	96	55.2	0	0	---	0.00	29.795 
09:30	56.5	56.5	56.5	96	55.4	0	0	---	0.00	29.795 
09:35	56.5	56.5	56.5	97	55.7	0	1	112	0.00	29.795 
09:40	55.9	55.9	55.9	96	54.8	2	5	248	0.01	29.795 
09:45	54.7	54.7	54.7	96	53.6	2	5	248	0.00	29.805 
09:50	54.2	54.2	54.2	96	53.1	1	5	270	0.00	29.805 
09:55	54.1	54.1	54.1	96	53.0	1	3	270	0.00	29.805 
10:00	54.2	54.2	54.2	96	53.1	1	2	270	0.00	29.806 
10:05	54.4	54.4	54.4	96	53.3	1	3	248	0.00	29.806 
10:10	54.4	54.4	54.4	96	53.3	1	3	248	0.00	29.806 
10:15	54.4	54.4	54.4	96	53.3	1	3	248	0.00	29.808 
10:20	54.4	54.4	54.4	96	53.3	1	3	248	0.00	29.808 
10:25	54.4	54.4	54.4	96	53.3	1	3	248	0.00	29.808 
10:30	54.4	54.4	54.4	96	53.3	1	3	248	0.00	29.817 
10:35	54.4	54.4	54.4	96	53.3	1	3	292	0.00	29.817 
10:40	54.4	54.4	54.4	96	53.3	1	2	292	0.00	29.817 
10:45	54.4	54.4	54.4	96	53.3	1	4	270	0.00	29.831 
10:50	54.2	54.2	54.2	96	53.1	2	5	248	0.00	29.831 
10:55	54.4	54.4	54.4	96	53.3	1	3	248	0.00	29.831 
11:00	54.5	54.5	54.5	96	53.4	2	4	248	0.00	29.820 
11:05	55.1	55.1	55.1	96	54.0	1	4	248	0.00	29.820 
11:10	55.6	55.6	55.6	96	54.5	3	5	270	0.00	29.820 
11:15	56.2	56.2	56.2	96	55.1	3	5	270	0.00	29.817 
11:20	56.0	56.0	56.0	95	54.6	3	5	270	0.00	29.817 
11:25	56.0	56.0	56.0	95	54.6	2	4	270	0.00	29.817 
11:30	56.3	56.3	56.3	94	54.6	2	4	248	0.00	29.818 
11:35	57.0	57.0	57.0	94	55.3	2	4	248	0.00	29.818 
11:40	57.0	57.0	57.0	92	54.7	2	5	248	0.00	29.818 
11:45	56.9	56.9	56.9	91	54.3	3	5	270	0.01	29.814 
11:50	57.2	57.2	57.2	90	54.3	3	5	248	0.00	29.814 
11:55	57.5	57.5	57.5	88	54.0	2	5	270	0.00	29.814 
12:00	57.6	57.6	57.6	87	53.8	3	5	248	0.00	29.817 
12:05	58.0	58.0	58.0	85	53.5	3	4	292	0.00	29.817 
12:10	58.7	58.7	58.7	85	54.2	3	6	248	0.00	29.817 
12:15	59.8	59.8	59.8	85	55.3	2	4	248	0.00	29.811 
12:20	59.9	59.9	59.9	81	54.1	3	5	270	0.00	29.811 
12:25	59.9	59.9	59.9	80	53.7	3	5	270	0.00	29.811 
12:30	59.9	59.9	59.9	79	53.4	2	5	270	0.00	29.814 
12:35	60.1	60.1	60.1	80	53.9	2	4	292	0.00	29.814 
12:40	60.4	60.4	60.4	80	54.2	2	6	248	0.00	29.814 
12:45	60.7	60.7	60.7	78	53.8	3	5	248	0.00	29.813 
12:50	60.2	60.2	60.2	77	53.0	3	5	315	0.00	29.813 
12:55	60.1	60.1	60.1	77	52.9	1	4	248	0.00	29.813 
13:00	59.9	59.9	59.9	77	52.7	1	3	338	0.00	29.814 
13:05	60.1	60.1	60.1	77	52.9	2	3	270	0.00	29.814 
13:10	61.0	61.0	61.0	77	53.7	2	4	270	0.00	29.814 
13:15	61.8	61.8	61.8	76	54.1	2	3	270	0.00	29.812 
13:20	62.0	62.0	62.0	74	53.6	2	5	225	0.00	29.812 
13:25	62.0	62.0	62.0	73	53.2	2	5	270	0.00	29.812 
13:30	62.0	62.0	62.0	73	53.2	2	4	248	0.00	29.810 
13:35	61.8	61.8	61.8	73	53.0	2	4	315	0.00	29.810 
13:40	62.6	62.6	62.6	74	54.2	2	4	315	0.00	29.810 
13:45	62.6	62.6	62.6	73	53.8	2	4	270	0.00	29.810 
13:50	62.7	62.7	62.7	72	53.5	2	4	248	0.00	29.810 
13:55	62.9	62.9	62.9	72	53.7	2	5	248	0.00	29.810 
14:00	62.9	62.9	62.9	71	53.3	3	4	270	0.00	29.813 
14:05	62.7	62.7	62.7	72	53.5	2	4	248	0.00	29.813 
14:10	62.7	62.7	62.7	70	52.8	1	3	248	0.00	29.813 
14:15	62.7	62.7	62.7	72	53.5	1	4	248	0.00	29.813 
14:20	63.1	63.1	63.1	71	53.5	2	3	248	0.00	29.813 
14:25	63.2	63.2	63.2	71	53.6	3	6	248	0.00	29.813 
14:30	63.2	63.2	63.2	71	53.6	2	4	292	0.00	29.810 
14:35	62.9	62.9	62.9	71	53.3	2	5	270	0.00	29.810 
14:40	62.4	62.4	62.4	72	53.2	2	4	315	0.00	29.810 
14:45	62.3	62.3	62.3	74	53.9	3	4	292	0.00	29.805 
14:50	62.7	62.7	62.7	74	54.3	3	6	270	0.00	29.805 
14:55	62.6	62.6	62.6	74	54.2	2	4	338	0.00	29.805 
15:00	62.3	62.3	62.3	74	53.9	1	4	22	0.00	29.805 
15:05	62.1	62.1	62.1	75	54.1	1	4	248	0.00	29.805 
15:10	62.3	62.3	62.3	75	54.3	1	3	248	0.00	29.805 
15:15	62.4	62.4	62.4	73	53.6	1	3	338	0.00	29.803 
15:20	62.7	62.7	62.7	73	53.9	2	5	338	0.00	29.803 
15:25	62.9	62.9	62.9	73	54.1	1	5	0	0.00	29.803 
15:30	62.9	62.9	62.9	72	53.7	2	4	315	0.00	29.805 
15:35	62.9	62.9	62.9	73	54.1	1	3	315	0.00	29.805 
15:40	63.1	63.1	63.1	73	54.3	0	2	270	0.00	29.805 
15:45	63.2	63.2	63.2	73	54.4	1	2	270	0.00	29.803 
15:50	63.2	63.2	63.2	73	54.4	1	4	270	0.00	29.803 
15:55	63.2	63.2	63.2	73	54.4	0	1	270	0.00	29.803 
16:00	63.5	63.5	63.5	73	54.7	0	2	270	0.00	29.801 
16:05	63.7	63.7	63.7	72	54.5	1	3	292	0.00	29.801 
16:10	63.7	63.7	63.7	71	54.1	0	2	292	0.00	29.801 
16:15	63.7	63.7	63.7	72	54.5	0	1	292	0.00	29.801 
16:20	63.9	63.9	63.9	72	54.7	0	1	292	0.00	29.801 
16:25	63.9	63.9	63.9	72	54.7	0	3	292	0.00	29.801 
16:30	63.9	63.9	63.9	71	54.3	0	1	68	0.00	29.801 
16:35	64.0	64.0	64.0	72	54.8	0	2	68	0.00	29.801 
16:40	64.2	64.2	64.2	71	54.6	0	2	68	0.00	29.801 
16:45	64.2	64.2	64.2	70	54.2	1	2	68	0.00	29.801 
16:50	64.2	64.2	64.2	70	54.2	0	2	68	0.00	29.801 
16:55	64.2	64.2	64.2	70	54.2	0	1	68	0.00	29.801 
17:00	64.2	64.2	64.2	69	53.8	0	1	68	0.00	29.803 
17:05	64.2	64.2	64.2	69	53.8	0	1	68	0.00	29.803 
17:10	64.0	64.0	64.0	69	53.6	0	1	68	0.00	29.803 
17:15	64.0	64.0	64.0	71	54.4	0	2	68	0.00	29.809 
17:20	63.9	63.9	63.9	72	54.7	0	2	68	0.00	29.809 
17:25	63.9	63.9	63.9	73	55.1	0	2	68	0.00	29.809 
17:30	64.0	64.0	64.0	74	55.5	0	2	68	0.00	29.812 
17:35	64.3	64.3	64.3	74	55.8	0	2	68	0.00	29.812 
17:40	64.2	64.2	64.2	73	55.4	0	1	68	0.00	29.812 
17:45	64.2	64.2	64.2	73	55.4	0	0	---	0.00	29.813 
17:50	64.0	64.0	64.0	73	55.2	0	1	68	0.00	29.813 
17:55	63.9	63.9	63.9	73	55.1	0	0	---	0.00	29.813 
18:00	63.7	63.7	63.7	73	54.9	0	1	68	0.00	29.814 
18:05	63.5	63.5	63.5	73	54.7	0	1	68	0.00	29.814 
18:10	63.5	63.5	63.5	73	54.7	0	1	68	0.00	29.814 
18:15	63.4	63.4	63.4	74	55.0	0	1	68	0.00	29.814 
18:20	63.4	63.4	63.4	73	54.6	0	0	---	0.00	29.814 
18:25	63.4	63.4	63.4	74	55.0	0	1	68	0.00	29.814 
18:30	63.4	63.4	63.4	74	55.0	0	0	---	0.00	29.822 
18:35	63.4	63.4	63.4	73	54.6	0	1	68	0.00	29.822 
18:40	63.4	63.4	63.4	73	54.6	0	1	68	0.00	29.822 
18:45	63.4	63.4	63.4	74	55.0	0	1	68	0.00	29.830 
18:50	63.2	63.2	63.2	73	54.4	0	1	68	0.00	29.830 
18:55	63.1	63.1	63.1	74	54.7	0	1	68	0.00	29.830 
19:00	63.1	63.1	63.1	74	54.7	0	0	---	0.00	29.829 
19:05	62.9	62.9	62.9	76	55.2	0	0	---	0.00	29.829 
19:10	62.9	62.9	62.9	75	54.8	0	1	68	0.00	29.829 
19:15	62.7	62.7	62.7	75	54.7	0	0	---	0.00	29.821 
19:20	62.6	62.6	62.6	75	54.6	0	0	---	0.00	29.821 
19:25	62.4	62.4	62.4	75	54.4	0	0	---	0.00	29.821 
19:30	62.3	62.3	62.3	75	54.3	0	0	---	0.00	29.828 
19:35	62.0	62.0	62.0	75	54.0	0	0	---	0.00	29.828 
19:40	61.8	61.8	61.8	76	54.1	0	0	---	0.00	29.828 
19:45	61.5	61.5	61.5	76	53.9	0	0	---	0.00	29.831 
19:50	61.2	61.2	61.2	77	53.9	0	0	---	0.00	29.831 
19:55	61.0	61.0	61.0	77	53.7	0	0	---	0.00	29.831 
20:00	60.7	60.7	60.7	78	53.8	0	0	---	0.00	29.830 
20:05	60.4	60.4	60.4	79	53.9	0	0	---	0.00	29.830 
20:10	60.1	60.1	60.1	80	53.9	0	0	---	0.00	29.830 
20:15	59.8	59.8	59.8	81	54.0	0	0	---	0.00	29.823 
20:20	59.5	59.5	59.5	81	53.7	0	0	---	0.00	29.823 
20:25	59.3	59.3	59.3	82	53.8	0	0	---	0.00	29.823 
20:30	58.9	58.9	58.9	83	53.7	0	0	---	0.00	29.827 
20:35	58.7	58.7	58.7	83	53.5	0	0	---	0.00	29.827 
20:40	58.6	58.6	58.6	84	53.8	0	0	---	0.00	29.827 
20:45	58.6	58.6	58.6	85	54.1	0	1	68	0.00	29.835 
20:50	58.6	58.6	58.6	85	54.1	0	0	---	0.00	29.835 
20:55	58.6	58.6	58.6	85	54.1	0	0	---	0.00	29.835 
21:00	58.4	58.4	58.4	86	54.2	0	0	---	0.00	29.839 
21:05	58.4	58.4	58.4	86	54.2	0	0	---	0.00	29.839 
21:10	58.1	58.1	58.1	86	53.9	0	0	---	0.00	29.839 
21:15	58.1	58.1	58.1	87	54.2	0	0	---	0.00	29.847 
21:20	58.1	58.1	58.1	87	54.2	0	0	---	0.00	29.847 
21:25	58.3	58.3	58.3	88	54.8	0	1	68	0.00	29.847 
21:30	58.3	58.3	58.3	88	54.8	0	1	68	0.00	29.851 
21:35	58.1	58.1	58.1	88	54.6	0	0	---	0.00	29.851 
21:40	58.0	58.0	58.0	88	54.5	0	0	---	0.00	29.851 
21:45	58.0	58.0	58.0	88	54.5	0	1	68	0.00	29.850 
21:50	57.8	57.8	57.8	88	54.3	0	0	---	0.00	29.850 
21:55	57.8	57.8	57.8	89	54.6	0	0	---	0.00	29.850 
22:00	57.6	57.6	57.6	89	54.4	0	0	---	0.00	29.856 
22:05	57.5	57.5	57.5	89	54.3	0	1	68	0.00	29.856 
22:10	57.5	57.5	57.5	90	54.6	0	1	68	0.00	29.856 
22:15	57.5	57.5	57.5	90	54.6	0	1	68	0.00	29.856 
22:20	57.5	57.5	57.5	90	54.6	0	1	68	0.00	29.856 
22:25	57.5	57.5	57.5	91	54.9	0	1	68	0.00	29.856 
22:30	57.5	57.5	57.5	91	54.9	0	1	68	0.00	29.854 
22:35	57.2	57.2	57.2	91	54.6	0	0	---	0.00	29.854 
22:40	57.0	57.0	57.0	91	54.4	0	1	68	0.00	29.854 
22:45	56.9	56.9	56.9	91	54.3	0	0	---	0.00	29.853 
22:50	56.7	56.7	56.7	91	54.1	0	0	---	0.00	29.853 
22:55	56.6	56.6	56.6	91	54.0	0	0	---	0.00	29.853 
23:00	56.5	56.5	56.5	91	53.9	0	0	---	0.00	29.854 
23:05	56.5	56.5	56.5	92	54.2	0	1	68	0.00	29.854 
23:10	56.5	56.5	56.5	92	54.2	0	0	---	0.00	29.854 
23:15	56.3	56.3	56.3	92	54.0	0	0	---	0.00	29.853 
23:20	56.6	56.6	56.6	93	54.6	0	1	68	0.00	29.853 
23:25	56.9	56.9	56.9	93	54.9	0	1	68	0.00	29.853 
23:30	57.0	57.0	57.0	93	55.0	0	0	---	0.00	29.848 
23:35	57.0	57.0	57.0	93	55.0	0	0	---	0.00	29.848 
23:40	56.9	56.9	56.9	93	54.9	0	0	---	0.00	29.848 
23:45	56.6	56.6	56.6	93	54.6	0	0	---	0.00	29.849 
23:50	56.5	56.5	56.5	93	54.5	0	0	---	0.00	29.849 
23:55	56.2	56.2	56.2	93	54.2	0	0	---	0.00	29.849 

CoCoRaHS
IN-AL-39
A2 Web Hosting
Creative Commons License
GoDaddy
search engine by freefind advanced

loaded 2018-11-17 19:28:03 • last modified 2010-11-18 10:43:29
Privacy PolicyDisclaimer
• wx.awcolley.com is powered by PmWiki v.2002016 •
• all content (unless otherwise noted) © 2018 A W Colley